Date,TemperatureHighF,TemperatureAvgF,TemperatureLowF,DewpointHighF,DewpointAvgF,DewpointLowF,HumidityHigh,HumidityAvg,HumidityLow,PressureMaxIn,PressureMinIn,WindSpeedMaxMPH,WindSpeedAvgMPH,GustSpeedMaxMPH,PrecipitationSumIn
2013-1-1,17,10,3,9,4,-1,86,78,63,30.31,30.20,6,0,6,0.00
2013-1-2,23,19,14,18,13,7,85,77,61,30.23,30.10,7,1,7,0.00
2013-1-3,27,22,12,22,18,8,89,84,80,30.28,30.10,12,2,12,0.00
2013-1-4,30,21,11,21,16,7,87,80,68,30.25,30.13,13,2,13,0.00
2013-1-5,35,26,15,33,23,13,93,88,81,30.26,29.90,10,1,10,0.01
2013-1-6,35,25,16,31,20,13,87,83,78,30.32,29.90,10,1,10,0.00
2013-1-7,36,26,14,27,21,11,88,80,68,30.31,30.07,14,1,14,0.00
2013-1-8,38,32,22,33,27,19,95,84,75,30.12,29.96,10,1,10,0.08
2013-1-9,41,34,26,32,27,22,87,77,57,30.49,29.95,12,2,12,0.15
2013-1-10,39,31,22,35,27,20,96,86,70,30.52,29.89,13,1,13,0.39
2013-1-11,46,40,35,45,39,34,99,98,94,29.89,29.60,9,1,9,0.05
2013-1-12,47,34,22,44,28,17,94,80,69,30.03,29.60,20,3,20,0.00
2013-1-13,22,18,13,18,11,6,83,75,66,30.26,29.93,11,2,11,0.00
2013-1-14,25,17,10,14,9,4,84,72,55,30.50,30.26,7,1,7,0.00
2013-1-15,30,20,12,17,14,10,89,75,53,30.47,30.12,10,1,10,0.00
2013-1-16,34,27,18,29,21,12,87,78,66,30.12,29.81,16,2,16,0.00
2013-1-17,30,22,17,23,11,5,79,62,47,30.44,30.10,9,1,9,0.00
2013-1-18,41,31,17,33,25,10,82,76,68,30.46,29.84,16,2,16,0.00
2013-1-19,47,37,17,35,28,6,86,71,44,30.00,29.66,21,3,21,0.00
2013-1-20,17,12,8,9,1,-1,79,62,50,30.36,30.00,12,2,12,0.00
2013-1-21,11,4,-2,2,-5,-10,82,65,54,30.36,30.19,14,2,14,0.00
2013-1-22,8,2,-5,-2,-6,-11,78,66,56,30.45,30.36,10,1,10,0.00
2013-1-23,19,12,4,15,5,-4,87,73,59,30.50,30.14,13,2,13,0.00
2013-1-24,17,8,0,10,0,-6,77,70,60,30.73,30.39,7,1,7,0.00
2013-1-25,26,20,14,18,13,8,87,75,62,30.40,29.98,12,2,12,0.00
2013-1-26,24,18,9,14,9,4,81,69,50,30.45,30.25,7,0,7,0.00
2013-1-27,33,28,23,32,23,14,96,82,67,30.38,29.87,10,1,10,0.02
2013-1-28,40,36,33,36,34,32,98,92,83,29.96,29.77,6,0,6,0.20
2013-1-29,52,42,35,52,42,34,100,98,96,29.80,29.49,6,0,6,0.72
2013-1-30,35,27,16,34,26,12,98,94,86,29.66,29.34,7,0,7,0.03
2013-1-31,16,10,2,13,6,-3,88,83,74,30.22,29.66,10,2,10,0.00
2013-2-1,6,1,-5,4,-4,-9,88,79,68,30.40,30.19,11,2,11,0.00
2013-2-2,13,9,6,8,4,2,89,81,70,30.19,30.07,6,0,6,0.00
2013-2-3,20,15,8,14,10,4,90,81,67,30.09,29.99,11,1,11,0.00
2013-2-4,19,15,10,15,10,5,90,81,67,30.05,29.97,5,0,5,0.00
2013-2-5,29,20,8,25,16,4,92,84,78,30.15,29.83,9,1,9,0.00
2013-2-6,33,22,7,30,18,4,94,85,74,30.27,30.09,9,0,9,0.00
2013-2-7,34,31,22,33,30,20,96,94,90,30.12,29.93,5,0,5,0.08
2013-2-8,27,21,12,22,18,10,93,86,76,30.43,30.12,6,0,6,0.04
2013-2-9,29,23,11,26,21,9,94,90,85,30.44,30.10,10,1,10,0.00
2013-2-10,42,34,24,41,33,22,99,95,86,30.10,29.40,16,2,16,0.83
2013-2-11,38,31,25,34,26,20,91,84,78,30.03,29.41,24,4,24,0.01
2013-2-12,31,25,22,24,20,17,91,80,71,30.11,29.90,12,2,12,0.01
2013-2-13,39,30,19,31,25,17,97,84,69,29.90,29.69,10,1,10,0.01
2013-2-14,37,34,28,34,29,22,93,82,63,30.03,29.59,11,2,4,0.01
2013-2-15,27,21,13,20,11,5,78,66,49,30.26,30.04,6,1,0,0.00
2013-2-16,20,13,9,7,4,3,82,67,49,30.25,30.20,5,0,0,0.00
2013-2-17,27,17,4,20,9,1,88,73,58,30.25,29.96,4,1,0,0.00
2013-2-18,46,33,23,39,28,20,96,84,69,29.95,29.49,11,2,11,0.09
2013-2-19,23,14,9,20,8,0,89,78,67,30.26,29.59,16,3,16,0.00
2013-2-20,24,15,6,14,7,0,77,71,62,30.45,30.26,9,1,9,0.01
2013-2-21,26,19,11,24,15,6,94,84,75,30.48,30.09,11,1,11,0.00
2013-2-22,31,28,24,27,24,22,93,88,83,30.09,29.82,7,1,7,0.00
2013-2-23,31,26,22,23,21,17,86,79,68,29.98,29.88,11,2,11,0.02
2013-2-24,39,26,15,26,20,13,92,78,58,30.17,29.98,5,0,5,0.12
2013-2-25,41,30,18,31,24,16,94,79,60,30.20,30.06,6,0,6,0.02
2013-2-26,35,31,28,29,27,25,95,85,74,30.06,29.67,14,2,14,0.00
2013-2-27,34,30,28,32,29,27,96,94,90,29.83,29.66,5,1,5,0.10
2013-2-28,35,31,25,30,27,20,94,85,76,30.17,29.83,5,1,0,0.09
2013-3-1,28,23,15,21,19,12,90,82,70,30.29,30.17,6,1,0,0.01
2013-3-2,31,19,9,18,12,6,88,75,52,30.31,30.22,3,0,0,0.06
2013-3-3,33,19,7,17,11,4,89,73,49,30.22,30.14,2,0,0,0.03
2013-3-4,33,24,15,26,18,9,85,77,67,30.18,30.05,6,1,0,0.01
2013-3-5,31,28,25,29,26,23,94,90,85,30.14,29.91,2,0,0,0.04
2013-3-6,33,29,24,27,24,21,89,83,76,30.35,30.15,4,1,0,0.01
2013-3-7,37,25,14,23,19,11,92,77,58,30.45,30.35,2,0,0,0.09
2013-3-8,38,27,13,28,22,10,92,81,67,30.50,30.30,4,1,0,0.04
2013-3-9,39,36,30,36,32,25,96,86,75,30.30,29.81,5,1,2,0.33
2013-3-10,41,38,35,40,37,34,98,97,95,29.82,29.64,7,1,7,0.55
2013-3-11,35,33,30,34,31,27,98,95,86,29.80,29.58,9,1,9,0.02
2013-3-12,33,29,26,28,24,19,93,83,71,30.06,29.80,12,2,12,0.02
2013-3-13,34,25,20,21,15,10,86,68,38,30.35,30.06,6,2,5,0.00
2013-3-14,35,27,18,28,22,15,92,81,66,30.35,30.09,3,1,0,0.01
2013-3-15,35,32,27,34,29,25,95,91,86,30.08,29.84,7,1,7,0.11
2013-3-16,31,27,22,27,22,18,91,81,69,30.19,29.83,7,1,7,0.00
2013-3-17,35,25,17,23,17,10,81,69,57,30.30,30.03,10,1,10,0.00
2013-3-18,33,28,18,31,25,12,93,88,77,30.03,29.61,12,1,12,0.01
2013-3-19,31,21,12,15,11,7,81,67,49,30.11,29.77,7,3,0,0.01
2013-3-20,23,16,9,9,5,0,69,63,53,30.14,30.07,7,2,0,0.00
2013-3-21,31,21,10,15,10,4,77,64,49,30.12,30.05,4,1,0,0.01
2013-3-22,37,25,14,19,15,10,83,67,44,30.12,30.06,3,0,0,0.00
2013-3-23,41,30,20,23,20,17,88,68,46,30.18,30.09,2,0,0,0.00
2013-3-24,33,30,29,29,26,23,91,83,76,30.11,29.82,5,2,0,0.02
2013-3-25,36,31,25,27,24,20,82,74,66,30.13,29.87,6,1,0,0.00
2013-3-26,42,36,30,29,25,23,78,67,53,30.29,30.13,4,1,0,0.00
2013-3-27,45,36,29,28,24,21,80,63,41,30.34,30.28,5,1,0,0.00
2013-3-28,49,36,23,25,22,20,90,62,34,30.38,30.31,3,0,0,0.00
2013-3-29,53,39,26,26,24,22,90,59,30,30.35,30.24,2,0,0,0.00
2013-3-30,52,43,34,42,33,25,91,69,58,30.24,29.83,10,1,0,0.01
2013-3-31,48,40,33,42,34,21,94,79,60,29.93,29.74,5,2,0,0.00
2013-4-1,38,32,26,20,15,12,64,52,36,30.23,29.94,11,2,0,0.00
2013-4-2,42,32,23,19,16,12,78,53,31,30.36,30.23,5,1,0,0.00
2013-4-3,45,36,23,22,17,14,82,50,29,30.48,30.29,4,1,0,0.00
2013-4-4,58,43,31,36,27,21,67,55,37,30.29,29.96,6,1,0,0.00
2013-4-5,51,41,30,29,25,22,81,57,35,30.26,30.07,4,1,0,0.00
2013-4-6,60,45,35,49,33,19,89,62,46,30.13,29.55,6,2,0,0.02
2013-4-7,53,44,37,45,36,32,85,74,57,29.94,29.60,10,2,10,0.00
2013-4-8,61,46,38,51,42,32,96,84,68,30.00,29.61,9,1,9,0.33
2013-4-9,44,40,37,41,38,35,97,95,92,30.03,29.86,11,1,11,1.08
2013-4-10,38,35,32,36,34,31,96,95,93,30.09,29.91,10,2,10,0.54
2013-4-11,39,37,36,38,36,34,97,96,94,29.94,29.60,13,2,13,0.16
2013-4-12,41,36,35,37,34,29,98,90,77,29.82,29.54,5,1,0,0.02
2013-4-13,39,36,33,30,28,26,86,74,62,30.01,29.81,6,2,0,0.00
2013-4-14,53,40,32,47,35,27,94,81,68,30.02,29.55,8,2,0,0.10
2013-4-15,59,47,42,49,42,35,98,84,45,29.97,29.60,9,1,0,0.38
2013-4-16,55,44,34,36,33,30,88,68,42,30.31,29.97,5,1,0,0.00
2013-4-17,44,41,39,42,37,33,97,87,69,30.33,29.85,7,1,0,0.88
2013-4-18,59,46,38,58,44,33,99,94,81,29.89,29.33,21,2,21,0.31
2013-4-19,40,36,32,33,29,22,84,75,59,29.94,29.38,19,4,19,0.00
2013-4-20,48,37,28,24,19,13,78,51,28,30.41,29.94,11,1,11,0.00
2013-4-21,53,43,33,36,29,24,74,60,40,30.51,30.26,16,2,16,0.00
2013-4-22,68,55,44,42,38,34,71,55,35,30.28,29.99,11,1,11,0.00
2013-4-23,56,45,39,47,36,29,87,73,56,30.01,29.87,12,1,12,0.00
2013-4-24,55,42,34,31,27,22,75,57,29,30.06,29.98,7,1,4,0.00
2013-4-25,54,45,38,36,32,27,89,63,40,30.29,29.98,10,2,0,0.03
2013-4-26,69,55,40,46,40,27,71,57,42,30.28,30.13,11,2,10,0.00
2013-4-27,65,56,46,49,46,43,90,69,50,30.22,30.00,11,1,11,0.00
2013-4-28,74,59,43,50,45,40,91,63,35,30.00,29.77,10,0,10,0.00
2013-4-29,71,62,53,58,53,48,86,72,54,29.84,29.68,9,1,9,0.01
2013-4-30,86,72,60,61,54,46,91,58,26,29.85,29.65,17,2,17,0.02
2013-5-1,83,68,54,56,50,43,68,53,37,30.19,29.85,11,1,11,0.00
2013-5-2,57,48,38,44,38,34,89,71,54,30.29,30.18,10,2,10,0.05
2013-5-3,48,42,36,47,40,34,96,94,90,30.23,30.01,7,1,7,0.34
2013-5-4,73,58,48,57,50,46,96,75,43,30.06,29.98,10,0,10,0.05
2013-5-5,77,62,48,51,47,42,89,60,34,30.06,29.97,6,0,6,0.00
2013-5-6,78,63,47,47,45,39,87,54,28,30.07,29.97,5,0,5,0.00
2013-5-7,84,69,57,48,42,35,70,41,20,30.05,29.95,6,0,6,0.00
2013-5-8,84,69,52,52,47,40,83,50,22,30.01,29.92,5,0,5,0.00
2013-5-9,67,60,48,61,54,47,96,82,53,29.93,29.83,6,0,6,0.66
2013-5-10,53,47,42,48,44,41,96,91,81,30.00,29.87,9,1,9,0.34
2013-5-11,55,50,43,49,37,26,96,66,34,30.06,29.81,13,2,13,0.00
2013-5-12,57,45,37,32,27,22,66,51,28,30.13,30.06,9,1,9,0.00
2013-5-13,66,53,35,39,32,26,87,51,23,30.19,29.90,5,0,0,0.00
2013-5-14,93,72,54,61,49,39,67,47,22,29.90,29.53,6,1,0,0.01
2013-5-15,81,72,60,60,47,41,58,42,24,29.82,29.53,4,1,0,0.01
2013-5-16,88,69,53,51,46,38,82,48,23,29.94,29.82,4,0,0,0.00
2013-5-17,65,58,50,55,47,35,94,68,40,30.06,29.93,3,0,0,0.49
2013-5-18,83,68,54,65,57,48,81,70,50,30.05,29.89,3,0,0,0.49
2013-5-19,87,73,62,66,62,58,89,70,43,29.91,29.61,5,1,0,0.03
2013-5-20,85,73,62,64,62,59,96,69,45,29.75,29.56,6,1,0,0.48
2013-5-21,78,71,64,63,60,57,86,68,50,29.66,29.57,7,1,0,0.00
2013-5-22,72,64,59,62,59,56,92,83,68,29.74,29.59,2,0,0,0.03
2013-5-23,66,56,48,54,46,37,94,71,39,30.30,29.77,5,1,0,0.01
2013-5-24,67,53,40,43,39,36,91,62,35,30.45,30.29,3,0,0,0.01
2013-5-25,62,55,49,42,39,35,73,57,43,30.39,30.28,4,0,0,0.00
2013-5-26,68,56,46,52,43,35,83,63,40,30.30,30.14,3,0,0,0.03
2013-5-27,57,54,52,53,50,42,96,85,64,30.14,29.88,3,1,0,0.01
2013-5-28,74,62,52,67,60,51,99,93,77,29.89,29.69,2,0,0,0.19
2013-5-29,84,72,64,70,65,62,99,80,58,29.88,29.75,3,0,0,0.42
2013-5-30,84,72,63,71,67,62,99,84,59,29.85,29.66,6,1,0,0.41
2013-5-31,78,69,63,68,64,62,95,84,62,29.75,29.64,4,1,0,0.42
2013-6-1,82,71,64,66,63,57,97,77,51,29.68,29.58,5,0,0,0.00
2013-6-2,66,57,50,58,46,42,84,68,48,30.02,29.68,3,0,0,0.00
2013-6-3,75,60,45,50,44,37,93,60,26,30.10,30.00,4,0,0,0.00
2013-6-4,71,63,53,53,49,43,90,62,43,30.15,30.05,3,0,0,0.06
2013-6-5,68,57,51,60,54,49,95,87,70,30.12,29.93,1,0,0,0.12
2013-6-6,60,56,53,56,53,50,96,89,83,29.96,29.91,3,0,0,0.21
2013-6-7,73,61,54,55,51,49,88,73,47,30.00,29.90,2,0,0,0.00
2013-6-8,75,64,53,53,50,46,90,63,39,29.98,29.92,3,0,0,0.00
2013-6-9,82,69,58,64,56,48,96,66,46,29.99,29.76,5,1,0,0.26
2013-6-10,84,72,60,66,63,59,98,78,49,29.83,29.74,3,0,0,0.26
2013-6-11,88,74,61,67,64,59,95,72,46,29.89,29.76,4,0,0,0.00
2013-6-12,79,72,63,69,66,62,97,84,70,29.88,29.59,5,0,0,1.19
2013-6-13,82,69,58,62,59,56,97,72,44,30.03,29.72,3,0,0,1.19
2013-6-14,82,69,56,60,56,52,92,66,45,30.14,29.97,2,0,0,0.00
2013-6-15,86,71,59,70,63,53,96,78,57,30.03,29.78,2,0,0,0.02
2013-6-16,90,77,68,69,61,52,95,64,30,29.88,29.81,4,0,0,0.04
2013-6-17,92,76,66,62,58,55,75,55,32,29.93,29.83,4,0,0,0.00
2013-6-18,78,66,58,58,53,48,80,64,41,30.07,29.92,4,1,0,0.00
2013-6-19,84,69,52,55,50,45,85,56,32,30.13,30.03,3,0,0,0.00
2013-6-20,91,76,61,64,56,46,66,52,30,30.11,29.99,3,0,0,0.00
2013-6-21,80,72,66,69,66,61,96,80,66,30.05,29.82,3,0,0,0.62
2013-6-22,83,72,67,73,68,66,97,89,71,30.09,29.88,3,0,0,0.53
2013-6-23,88,74,65,74,69,64,98,83,64,30.03,29.82,3,0,0,0.01
2013-6-24,84,74,70,71,68,65,92,80,63,29.98,29.80,3,0,0,0.01
2013-6-25,84,73,66,74,70,65,99,89,72,29.91,29.76,2,0,0,0.13
2013-6-26,86,76,65,73,70,64,99,84,59,29.77,29.66,4,0,0,0.16
2013-6-27,92,80,72,73,69,60,94,71,43,29.76,29.65,4,0,0,0.16
2013-6-28,79,71,67,65,62,60,88,74,55,29.70,29.60,2,0,0,0.00
2013-6-29,74,68,64,66,63,60,96,85,66,29.82,29.60,3,0,0,0.10
2013-6-30,83,70,59,61,55,48,80,62,38,30.03,29.82,3,0,0,0.10
2013-7-1,84,70,58,58,54,50,83,59,33,30.10,30.03,4,0,0,0.00
2013-7-2,80,69,59,55,52,41,83,59,25,30.10,30.04,2,0,0,0.00
2013-7-3,74,66,58,63,58,50,87,74,63,30.07,30.00,2,0,0,0.00
2013-7-4,88,74,62,65,61,57,92,67,38,30.06,29.98,2,0,0,0.00
2013-7-5,89,77,67,67,64,61,85,66,45,30.03,29.95,3,0,0,0.00
2013-7-6,90,77,68,68,65,62,83,67,45,30.00,29.90,2,0,0,0.00
2013-7-7,94,79,70,72,69,66,89,73,48,29.94,29.87,2,0,0,0.00
2013-7-8,86,77,72,74,67,-100,95,83,68,29.93,29.89,2,0,0,0.00
2013-7-9,87,78,72,76,73,69,95,85,65,29.95,29.79,3,0,0,0.11
2013-7-10,85,76,68,75,64,57,90,66,40,29.99,29.81,3,0,0,0.11
2013-7-11,88,72,61,60,58,54,90,64,36,30.10,30.00,3,0,0,0.00
2013-7-12,89,74,61,59,55,51,83,56,30,30.14,30.05,2,0,0,0.00
2013-7-13,90,75,65,64,58,-100,78,59,38,30.13,30.05,2,-10,0,0.00
2013-7-14,93,79,65,69,66,60,84,66,44,30.19,30.11,3,0,0,0.00
2013-7-15,95,82,71,75,71,67,87,70,48,30.24,30.15,2,0,0,0.00
2013-7-16,96,85,76,77,75,73,91,72,49,30.24,30.18,3,0,0,0.00
2013-7-17,98,86,79,78,75,72,83,70,45,30.25,30.11,3,0,0,0.01
2013-7-18,97,86,78,76,74,71,88,68,44,30.13,29.85,4,1,0,0.01
2013-7-19,94,85,78,75,71,64,76,63,48,29.84,29.69,6,1,0,0.00
2013-7-20,92,77,67,66,63,60,80,63,39,29.93,29.79,4,0,0,0.00
2013-7-21,88,70,63,70,62,57,96,79,52,29.94,29.85,4,0,0,0.73
2013-7-22,91,75,63,74,67,62,96,78,51,29.86,29.64,5,0,0,0.06
2013-7-23,80,71,63,65,58,54,87,65,45,29.97,29.69,2,0,0,0.06
2013-7-24,78,67,57,56,53,50,90,64,38,30.07,29.97,3,0,0,0.00
2013-7-25,82,71,60,66,61,54,87,71,50,30.06,29.93,3,0,0,0.05
2013-7-26,80,71,65,70,62,56,95,75,48,29.94,29.81,3,0,0,0.01
2013-7-27,64,58,53,57,49,46,85,73,57,29.95,29.86,3,0,0,0.01
2013-7-28,70,60,53,55,52,49,93,75,54,30.01,29.84,3,0,0,0.02
2013-7-29,80,66,56,60,56,51,85,70,48,30.15,30.01,3,0,0,0.00
2013-7-30,76,67,59,64,60,56,92,81,60,30.16,30.06,2,0,0,0.00
2013-7-31,83,71,65,67,63,58,93,77,55,30.07,29.93,2,0,0,0.00
2013-8-1,85,72,63,63,58,54,90,66,35,29.98,29.87,4,0,0,0.00
2013-8-2,83,73,65,68,61,56,96,69,44,29.94,29.81,5,0,0,0.34
2013-8-3,82,69,57,57,53,-100,87,61,36,30.11,29.94,2,0,0,0.00
2013-8-4,81,68,55,59,55,51,89,67,42,30.21,30.08,2,0,0,0.00
2013-8-5,75,66,61,65,61,56,93,83,67,30.09,29.84,3,0,0,0.05
2013-8-6,87,75,67,71,68,65,95,80,56,29.86,29.76,2,0,0,0.01
2013-8-7,83,76,68,72,67,60,92,73,53,29.94,29.71,3,0,0,0.01
2013-8-8,86,72,63,63,60,56,90,69,43,30.02,29.94,3,0,0,0.00
2013-8-9,83,72,64,66,60,54,78,65,44,30.04,29.95,4,0,0,0.00
2013-8-10,81,67,58,58,56,54,89,70,42,30.14,30.04,2,0,0,0.00
2013-8-17,89,75,65,60,58,54,79,57,35,30.15,30.11,0,0,0,0.00
2013-8-18,87,70,58,61,58,54,92,69,36,30.17,30.04,1,0,0,0.00
2013-8-19,82,71,61,66,61,57,90,73,50,30.06,29.96,1,0,0,0.00
2013-8-20,90,76,66,68,65,62,91,73,46,30.02,29.93,2,0,0,0.00
2013-8-21,91,79,70,73,69,66,86,72,52,29.96,29.85,4,0,0,0.00
2013-8-22,76,71,67,73,70,65,99,93,85,30.07,29.91,4,0,0,0.27
2013-8-23,84,70,59,68,61,57,95,76,51,30.14,30.06,1,0,0,0.00
2013-8-24,85,72,58,72,64,55,93,77,62,30.19,30.09,0,0,0,0.00
2013-8-25,93,78,69,76,69,64,88,74,54,30.13,30.01,4,0,0,0.00
2013-8-26,91,80,71,78,72,67,87,77,61,30.06,29.88,2,0,0,0.00
2013-8-27,99,83,73,77,74,70,91,75,48,29.89,29.72,4,0,0,0.00
2013-8-28,84,77,72,75,72,69,95,85,71,29.98,29.76,2,0,0,0.00
2013-8-29,90,76,66,74,68,64,97,78,47,30.02,29.90,5,0,0,0.00
2013-8-30,96,80,71,80,73,68,94,81,55,29.89,29.69,4,0,0,0.00
2013-8-31,80,72,67,70,66,63,93,80,70,29.82,29.72,4,0,0,0.00
2013-9-1,83,72,65,75,67,60,97,85,68,29.78,29.65,2,0,0,0.01
2013-9-2,72,64,57,61,58,53,93,80,57,29.96,29.78,3,0,0,0.01
2013-9-3,77,62,50,60,54,48,95,78,47,30.06,29.96,0,0,0,0.00
2013-9-4,82,69,57,68,61,54,94,77,56,30.07,29.99,0,0,0,0.00
2013-9-5,76,68,60,63,59,50,92,75,60,30.21,30.07,0,0,0,0.00
2013-9-6,88,71,55,68,60,50,87,71,51,30.16,29.91,0,0,0,0.00
2013-9-7,88,76,68,75,69,63,90,78,55,29.92,29.80,0,0,0,0.01
2013-9-8,73,68,64,69,64,60,90,86,83,30.01,29.89,2,0,0,0.01
2013-9-9,88,76,66,79,71,63,96,83,70,29.91,29.70,3,0,0,0.06
2013-9-10,95,83,74,71,66,62,82,59,34,29.87,29.75,5,1,0,0.06
2013-9-11,80,72,66,70,67,65,98,84,64,30.00,29.88,3,0,0,0.17
2013-9-12,75,66,59,65,58,51,93,75,54,30.10,29.92,4,0,0,0.01
2013-9-13,64,56,46,50,46,41,91,69,45,30.20,30.09,6,0,6,0.01
2013-9-14,70,59,46,53,48,43,94,69,46,30.14,29.94,9,0,10,0.00
2013-9-15,62,57,55,58,54,47,98,92,60,30.19,29.92,2,0,3,0.66
2013-9-16,62,54,45,54,48,41,93,79,61,30.37,30.19,4,0,0,0.00
2013-9-17,69,57,45,58,51,43,96,82,61,30.32,30.07,9,1,0,0.06